sensor_id;sensor_type;location;lat;lon;timestamp;temperature;humidity
65034;DHT22;51601;51.356;12.458;2022-09-14T00:03:30;18.00;82.90
65034;DHT22;51601;51.356;12.458;2022-09-14T00:07:44;18.00;83.10
65034;DHT22;51601;51.356;12.458;2022-09-14T00:11:58;18.10;83.10
65034;DHT22;51601;51.356;12.458;2022-09-14T00:16:15;18.10;83.10
65034;DHT22;51601;51.356;12.458;2022-09-14T00:20:30;18.00;83.30
65034;DHT22;51601;51.356;12.458;2022-09-14T00:24:44;18.00;83.80
65034;DHT22;51601;51.356;12.458;2022-09-14T00:28:59;18.00;84.10
65034;DHT22;51601;51.356;12.458;2022-09-14T00:33:17;18.10;84.30
65034;DHT22;51601;51.356;12.458;2022-09-14T00:37:31;18.20;84.30
65034;DHT22;51601;51.356;12.458;2022-09-14T00:41:48;18.30;84.20
65034;DHT22;51601;51.356;12.458;2022-09-14T00:46:02;18.40;84.20
65034;DHT22;51601;51.356;12.458;2022-09-14T00:50:18;18.50;83.90
65034;DHT22;51601;51.356;12.458;2022-09-14T00:54:32;18.50;83.70
65034;DHT22;51601;51.356;12.458;2022-09-14T00:58:49;18.60;83.40
65034;DHT22;51601;51.356;12.458;2022-09-14T01:03:03;18.60;83.30
65034;DHT22;51601;51.356;12.458;2022-09-14T01:07:29;18.60;83.30
65034;DHT22;51601;51.356;12.458;2022-09-14T01:12:00;18.60;83.20
65034;DHT22;51601;51.356;12.458;2022-09-14T01:16:21;18.60;83.80
65034;DHT22;51601;51.356;12.458;2022-09-14T01:20:40;18.60;83.00
65034;DHT22;51601;51.356;12.458;2022-09-14T01:25:06;18.50;83.00
65034;DHT22;51601;51.356;12.458;2022-09-14T01:29:29;18.50;83.00
65034;DHT22;51601;51.356;12.458;2022-09-14T01:33:50;18.50;83.00
65034;DHT22;51601;51.356;12.458;2022-09-14T01:38:09;18.50;83.10
65034;DHT22;51601;51.356;12.458;2022-09-14T01:42:25;18.40;83.00
65034;DHT22;51601;51.356;12.458;2022-09-14T01:46:44;18.50;82.90
65034;DHT22;51601;51.356;12.458;2022-09-14T01:51:01;18.50;82.70
65034;DHT22;51601;51.356;12.458;2022-09-14T01:55:19;18.50;82.40
65034;DHT22;51601;51.356;12.458;2022-09-14T01:59:37;18.40;82.10
65034;DHT22;51601;51.356;12.458;2022-09-14T02:03:57;18.40;81.90
65034;DHT22;51601;51.356;12.458;2022-09-14T02:08:12;18.40;81.80
65034;DHT22;51601;51.356;12.458;2022-09-14T02:12:25;18.30;81.60
65034;DHT22;51601;51.356;12.458;2022-09-14T02:16:39;18.30;81.60
65034;DHT22;51601;51.356;12.458;2022-09-14T02:21:00;18.30;81.40
65034;DHT22;51601;51.356;12.458;2022-09-14T02:25:15;18.20;81.50
65034;DHT22;51601;51.356;12.458;2022-09-14T02:29:30;18.10;81.60
65034;DHT22;51601;51.356;12.458;2022-09-14T02:33:49;18.00;81.70
65034;DHT22;51601;51.356;12.458;2022-09-14T02:38:12;18.00;82.20
65034;DHT22;51601;51.356;12.458;2022-09-14T02:42:33;17.90;82.50
65034;DHT22;51601;51.356;12.458;2022-09-14T02:46:55;17.90;82.70
65034;DHT22;51601;51.356;12.458;2022-09-14T02:51:17;17.90;82.70
65034;DHT22;51601;51.356;12.458;2022-09-14T02:55:37;17.80;82.90
65034;DHT22;51601;51.356;12.458;2022-09-14T02:59:53;17.80;83.00
65034;DHT22;51601;51.356;12.458;2022-09-14T03:04:07;17.70;83.10
65034;DHT22;51601;51.356;12.458;2022-09-14T03:08:20;17.70;83.20
65034;DHT22;51601;51.356;12.458;2022-09-14T03:12:36;17.70;83.00
65034;DHT22;51601;51.356;12.458;2022-09-14T03:16:50;17.70;82.80
65034;DHT22;51601;51.356;12.458;2022-09-14T03:21:05;17.60;82.50
65034;DHT22;51601;51.356;12.458;2022-09-14T03:25:19;17.60;82.10
65034;DHT22;51601;51.356;12.458;2022-09-14T03:29:35;17.60;82.10
65034;DHT22;51601;51.356;12.458;2022-09-14T03:33:51;17.50;81.90
65034;DHT22;51601;51.356;12.458;2022-09-14T03:38:06;17.50;81.70
65034;DHT22;51601;51.356;12.458;2022-09-14T03:42:20;17.50;81.70
65034;DHT22;51601;51.356;12.458;2022-09-14T03:46:35;17.40;81.70
65034;DHT22;51601;51.356;12.458;2022-09-14T03:50:49;17.40;81.50
65034;DHT22;51601;51.356;12.458;2022-09-14T03:55:04;17.40;81.50
65034;DHT22;51601;51.356;12.458;2022-09-14T03:59:19;17.40;81.70
65034;DHT22;51601;51.356;12.458;2022-09-14T04:03:35;17.40;81.50
65034;DHT22;51601;51.356;12.458;2022-09-14T04:07:49;17.30;81.30
65034;DHT22;51601;51.356;12.458;2022-09-14T04:12:02;17.40;81.20
65034;DHT22;51601;51.356;12.458;2022-09-14T04:16:18;17.30;81.00
65034;DHT22;51601;51.356;12.458;2022-09-14T04:20:33;17.30;80.60
65034;DHT22;51601;51.356;12.458;2022-09-14T04:24:47;17.30;80.60
65034;DHT22;51601;51.356;12.458;2022-09-14T04:29:02;17.30;80.70
65034;DHT22;51601;51.356;12.458;2022-09-14T04:33:16;17.30;80.60
65034;DHT22;51601;51.356;12.458;2022-09-14T04:37:31;17.30;80.30
65034;DHT22;51601;51.356;12.458;2022-09-14T04:41:45;17.30;80.00
65034;DHT22;51601;51.356;12.458;2022-09-14T04:46:01;17.30;79.80
65034;DHT22;51601;51.356;12.458;2022-09-14T04:50:15;17.20;79.80
65034;DHT22;51601;51.356;12.458;2022-09-14T04:54:31;17.20;79.90
65034;DHT22;51601;51.356;12.458;2022-09-14T04:58:46;17.20;79.90
65034;DHT22;51601;51.356;12.458;2022-09-14T05:03:03;17.20;79.90
65034;DHT22;51601;51.356;12.458;2022-09-14T05:07:17;17.20;80.00
65034;DHT22;51601;51.356;12.458;2022-09-14T05:11:34;17.20;80.00
65034;DHT22;51601;51.356;12.458;2022-09-14T05:15:49;17.20;80.00
65034;DHT22;51601;51.356;12.458;2022-09-14T05:20:04;17.20;79.90
65034;DHT22;51601;51.356;12.458;2022-09-14T05:24:18;17.20;79.70
65034;DHT22;51601;51.356;12.458;2022-09-14T05:28:34;17.30;79.60
65034;DHT22;51601;51.356;12.458;2022-09-14T05:32:48;17.30;79.60
65034;DHT22;51601;51.356;12.458;2022-09-14T05:37:06;17.30;79.50
65034;DHT22;51601;51.356;12.458;2022-09-14T05:41:20;17.30;79.20
65034;DHT22;51601;51.356;12.458;2022-09-14T05:45:35;17.40;78.80
65034;DHT22;51601;51.356;12.458;2022-09-14T05:49:49;17.40;78.40
65034;DHT22;51601;51.356;12.458;2022-09-14T05:54:04;17.50;78.40
65034;DHT22;51601;51.356;12.458;2022-09-14T05:58:22;17.50;77.90
65034;DHT22;51601;51.356;12.458;2022-09-14T06:02:38;17.50;77.40
65034;DHT22;51601;51.356;12.458;2022-09-14T06:06:54;17.50;76.70
65034;DHT22;51601;51.356;12.458;2022-09-14T06:11:29;17.50;76.70
65034;DHT22;51601;51.356;12.458;2022-09-14T06:15:44;17.50;75.90
65034;DHT22;51601;51.356;12.458;2022-09-14T06:19:59;17.60;75.60
65034;DHT22;51601;51.356;12.458;2022-09-14T06:24:16;17.60;75.30
65034;DHT22;51601;51.356;12.458;2022-09-14T06:28:30;17.60;75.30
65034;DHT22;51601;51.356;12.458;2022-09-14T06:32:45;17.60;75.50
65034;DHT22;51601;51.356;12.458;2022-09-14T06:37:00;17.60;75.40
65034;DHT22;51601;51.356;12.458;2022-09-14T06:41:15;17.60;75.40
65034;DHT22;51601;51.356;12.458;2022-09-14T06:45:34;17.60;75.50
65034;DHT22;51601;51.356;12.458;2022-09-14T06:49:48;17.60;75.60
65034;DHT22;51601;51.356;12.458;2022-09-14T06:54:04;17.60;75.80
65034;DHT22;51601;51.356;12.458;2022-09-14T06:58:18;17.80;75.70
65034;DHT22;51601;51.356;12.458;2022-09-14T07:02:32;17.90;75.30
65034;DHT22;51601;51.356;12.458;2022-09-14T07:06:47;17.90;75.00
65034;DHT22;51601;51.356;12.458;2022-09-14T07:11:03;18.00;74.80
65034;DHT22;51601;51.356;12.458;2022-09-14T07:15:17;18.10;74.30
65034;DHT22;51601;51.356;12.458;2022-09-14T07:19:31;18.10;73.40
65034;DHT22;51601;51.356;12.458;2022-09-14T07:23:46;18.00;72.80
65034;DHT22;51601;51.356;12.458;2022-09-14T07:28:02;18.00;72.50
65034;DHT22;51601;51.356;12.458;2022-09-14T07:32:15;18.00;72.10
65034;DHT22;51601;51.356;12.458;2022-09-14T07:36:31;18.00;72.20
65034;DHT22;51601;51.356;12.458;2022-09-14T07:40:46;18.10;72.10
65034;DHT22;51601;51.356;12.458;2022-09-14T07:45:01;18.20;71.60
65034;DHT22;51601;51.356;12.458;2022-09-14T07:49:16;18.20;71.40
65034;DHT22;51601;51.356;12.458;2022-09-14T07:53:30;18.30;71.00
65034;DHT22;51601;51.356;12.458;2022-09-14T07:57:44;18.40;71.10
65034;DHT22;51601;51.356;12.458;2022-09-14T08:02:10;18.50;70.60
65034;DHT22;51601;51.356;12.458;2022-09-14T08:06:24;18.60;70.30
65034;DHT22;51601;51.356;12.458;2022-09-14T08:10:38;18.70;70.20
65034;DHT22;51601;51.356;12.458;2022-09-14T08:14:52;18.70;70.30
65034;DHT22;51601;51.356;12.458;2022-09-14T08:19:11;18.70;70.80
65034;DHT22;51601;51.356;12.458;2022-09-14T08:23:24;18.80;71.00
65034;DHT22;51601;51.356;12.458;2022-09-14T08:27:38;18.80;70.60
65034;DHT22;51601;51.356;12.458;2022-09-14T08:31:52;18.80;70.60
65034;DHT22;51601;51.356;12.458;2022-09-14T08:36:08;18.90;70.30
65034;DHT22;51601;51.356;12.458;2022-09-14T08:40:22;18.90;69.90
65034;DHT22;51601;51.356;12.458;2022-09-14T08:44:40;18.90;69.50
65034;DHT22;51601;51.356;12.458;2022-09-14T08:48:54;18.90;69.20
65034;DHT22;51601;51.356;12.458;2022-09-14T08:53:10;18.90;69.70
65034;DHT22;51601;51.356;12.458;2022-09-14T08:57:32;18.90;69.40
65034;DHT22;51601;51.356;12.458;2022-09-14T09:01:54;18.90;69.20
65034;DHT22;51601;51.356;12.458;2022-09-14T09:06:14;18.80;69.40
65034;DHT22;51601;51.356;12.458;2022-09-14T09:10:31;18.80;70.00
65034;DHT22;51601;51.356;12.458;2022-09-14T09:14:49;18.90;69.90
65034;DHT22;51601;51.356;12.458;2022-09-14T09:19:06;19.00;70.00
65034;DHT22;51601;51.356;12.458;2022-09-14T09:23:27;19.30;69.80
65034;DHT22;51601;51.356;12.458;2022-09-14T09:27:42;19.40;68.80
65034;DHT22;51601;51.356;12.458;2022-09-14T09:31:56;19.50;68.40
65034;DHT22;51601;51.356;12.458;2022-09-14T09:36:46;19.50;68.10
65034;DHT22;51601;51.356;12.458;2022-09-14T09:41:05;19.50;66.90
65034;DHT22;51601;51.356;12.458;2022-09-14T09:45:21;19.50;66.50
65034;DHT22;51601;51.356;12.458;2022-09-14T09:49:36;19.40;66.20
65034;DHT22;51601;51.356;12.458;2022-09-14T09:53:53;19.30;65.40
65034;DHT22;51601;51.356;12.458;2022-09-14T09:58:22;19.20;65.30
65034;DHT22;51601;51.356;12.458;2022-09-14T10:02:41;19.00;65.40
65034;DHT22;51601;51.356;12.458;2022-09-14T10:06:55;18.80;66.00
65034;DHT22;51601;51.356;12.458;2022-09-14T10:11:26;18.70;66.20
65034;DHT22;51601;51.356;12.458;2022-09-14T10:15:40;18.60;66.40
65034;DHT22;51601;51.356;12.458;2022-09-14T10:19:56;18.60;66.90
65034;DHT22;51601;51.356;12.458;2022-09-14T10:24:17;18.80;67.00
65034;DHT22;51601;51.356;12.458;2022-09-14T10:28:33;18.90;67.00
65034;DHT22;51601;51.356;12.458;2022-09-14T10:32:54;19.00;66.40
65034;DHT22;51601;51.356;12.458;2022-09-14T10:37:30;19.00;66.20
65034;DHT22;51601;51.356;12.458;2022-09-14T10:41:50;19.10;65.90
65034;DHT22;51601;51.356;12.458;2022-09-14T10:46:11;19.10;65.70
65034;DHT22;51601;51.356;12.458;2022-09-14T10:50:39;18.90;66.50
65034;DHT22;51601;51.356;12.458;2022-09-14T10:55:14;18.60;67.60
65034;DHT22;51601;51.356;12.458;2022-09-14T10:59:37;18.30;68.80
65034;DHT22;51601;51.356;12.458;2022-09-14T11:04:06;18.10;69.80
65034;DHT22;51601;51.356;12.458;2022-09-14T11:08:30;17.90;72.30
65034;DHT22;51601;51.356;12.458;2022-09-14T11:12:54;17.60;75.50
65034;DHT22;51601;51.356;12.458;2022-09-14T11:17:33;17.40;78.50
65034;DHT22;51601;51.356;12.458;2022-09-14T11:21:56;17.20;81.40
65034;DHT22;51601;51.356;12.458;2022-09-14T11:26:15;16.90;84.60
65034;DHT22;51601;51.356;12.458;2022-09-14T11:30:36;16.80;87.70
65034;DHT22;51601;51.356;12.458;2022-09-14T11:34:56;16.70;90.00
65034;DHT22;51601;51.356;12.458;2022-09-14T11:39:16;16.60;90.90
65034;DHT22;51601;51.356;12.458;2022-09-14T11:43:36;16.60;91.80
65034;DHT22;51601;51.356;12.458;2022-09-14T11:47:59;16.70;92.70
65034;DHT22;51601;51.356;12.458;2022-09-14T11:52:17;16.60;93.40
65034;DHT22;51601;51.356;12.458;2022-09-14T11:56:32;16.70;93.90
65034;DHT22;51601;51.356;12.458;2022-09-14T12:01:08;16.60;94.10
65034;DHT22;51601;51.356;12.458;2022-09-14T12:05:38;16.50;94.30
65034;DHT22;51601;51.356;12.458;2022-09-14T12:09:52;16.50;94.70
65034;DHT22;51601;51.356;12.458;2022-09-14T12:14:19;16.40;95.10
65034;DHT22;51601;51.356;12.458;2022-09-14T12:18:37;16.30;95.40
65034;DHT22;51601;51.356;12.458;2022-09-14T12:23:03;16.30;95.80
65034;DHT22;51601;51.356;12.458;2022-09-14T12:27:21;16.40;96.10
65034;DHT22;51601;51.356;12.458;2022-09-14T12:31:56;16.40;96.40
65034;DHT22;51601;51.356;12.458;2022-09-14T12:46:09;16.80;96.90
65034;DHT22;51601;51.356;12.458;2022-09-14T12:50:26;16.90;97.30
65034;DHT22;51601;51.356;12.458;2022-09-14T12:54:56;17.00;97.70
65034;DHT22;51601;51.356;12.458;2022-09-14T12:59:22;17.10;97.50
65034;DHT22;51601;51.356;12.458;2022-09-14T13:03:48;17.10;97.70
65034;DHT22;51601;51.356;12.458;2022-09-14T13:08:08;17.20;98.00
65034;DHT22;51601;51.356;12.458;2022-09-14T13:12:26;17.20;97.20
65034;DHT22;51601;51.356;12.458;2022-09-14T13:16:46;17.00;96.60
65034;DHT22;51601;51.356;12.458;2022-09-14T13:21:11;16.90;97.10
65034;DHT22;51601;51.356;12.458;2022-09-14T13:25:32;16.90;97.80
65034;DHT22;51601;51.356;12.458;2022-09-14T13:29:46;16.90;97.90
65034;DHT22;51601;51.356;12.458;2022-09-14T13:34:02;16.90;97.80
65034;DHT22;51601;51.356;12.458;2022-09-14T13:38:18;16.90;98.00
65034;DHT22;51601;51.356;12.458;2022-09-14T13:42:34;16.90;98.00
65034;DHT22;51601;51.356;12.458;2022-09-14T13:46:48;16.90;97.50
65034;DHT22;51601;51.356;12.458;2022-09-14T13:51:04;16.70;97.20
65034;DHT22;51601;51.356;12.458;2022-09-14T13:55:22;16.60;97.20
65034;DHT22;51601;51.356;12.458;2022-09-14T13:59:36;16.50;97.20
65034;DHT22;51601;51.356;12.458;2022-09-14T14:04:23;16.50;97.70
65034;DHT22;51601;51.356;12.458;2022-09-14T14:08:40;16.50;98.00
65034;DHT22;51601;51.356;12.458;2022-09-14T14:12:54;16.50;98.20
65034;DHT22;51601;51.356;12.458;2022-09-14T14:17:31;16.50;98.30
65034;DHT22;51601;51.356;12.458;2022-09-14T14:21:48;16.50;98.30
65034;DHT22;51601;51.356;12.458;2022-09-14T14:26:12;16.50;98.10
65034;DHT22;51601;51.356;12.458;2022-09-14T14:30:27;16.50;98.20
65034;DHT22;51601;51.356;12.458;2022-09-14T14:34:41;16.40;98.20
65034;DHT22;51601;51.356;12.458;2022-09-14T14:38:55;16.40;98.50
65034;DHT22;51601;51.356;12.458;2022-09-14T14:43:16;16.40;98.60
65034;DHT22;51601;51.356;12.458;2022-09-14T14:47:33;16.40;98.40
65034;DHT22;51601;51.356;12.458;2022-09-14T14:51:48;16.40;98.60
65034;DHT22;51601;51.356;12.458;2022-09-14T14:56:02;16.40;98.60
65034;DHT22;51601;51.356;12.458;2022-09-14T15:00:19;16.30;98.70
65034;DHT22;51601;51.356;12.458;2022-09-14T15:04:33;16.30;98.70
65034;DHT22;51601;51.356;12.458;2022-09-14T15:08:47;16.40;98.70
65034;DHT22;51601;51.356;12.458;2022-09-14T15:13:04;16.40;98.80
65034;DHT22;51601;51.356;12.458;2022-09-14T15:17:20;16.40;98.70
65034;DHT22;51601;51.356;12.458;2022-09-14T15:21:34;16.40;98.70
65034;DHT22;51601;51.356;12.458;2022-09-14T15:25:50;16.40;98.70
65034;DHT22;51601;51.356;12.458;2022-09-14T15:30:05;16.40;98.70
65034;DHT22;51601;51.356;12.458;2022-09-14T15:34:22;16.40;98.50
65034;DHT22;51601;51.356;12.458;2022-09-14T15:38:36;16.40;98.30
65034;DHT22;51601;51.356;12.458;2022-09-14T15:42:50;16.40;98.50
65034;DHT22;51601;51.356;12.458;2022-09-14T15:47:04;16.40;98.60
65034;DHT22;51601;51.356;12.458;2022-09-14T15:51:19;16.40;98.50
65034;DHT22;51601;51.356;12.458;2022-09-14T15:55:33;16.30;98.30
65034;DHT22;51601;51.356;12.458;2022-09-14T15:59:47;16.30;98.30
65034;DHT22;51601;51.356;12.458;2022-09-14T16:04:02;16.30;98.30
65034;DHT22;51601;51.356;12.458;2022-09-14T16:08:24;16.30;98.30
65034;DHT22;51601;51.356;12.458;2022-09-14T16:12:41;16.20;98.30
65034;DHT22;51601;51.356;12.458;2022-09-14T16:16:55;16.20;98.50
65034;DHT22;51601;51.356;12.458;2022-09-14T16:21:14;16.20;98.70
65034;DHT22;51601;51.356;12.458;2022-09-14T16:25:30;16.10;98.60
65034;DHT22;51601;51.356;12.458;2022-09-14T16:29:43;16.10;98.50
65034;DHT22;51601;51.356;12.458;2022-09-14T16:33:59;16.10;98.40
65034;DHT22;51601;51.356;12.458;2022-09-14T16:38:14;16.10;98.50
65034;DHT22;51601;51.356;12.458;2022-09-14T16:42:29;16.00;98.60
65034;DHT22;51601;51.356;12.458;2022-09-14T16:46:43;16.00;98.70
65034;DHT22;51601;51.356;12.458;2022-09-14T16:51:00;16.00;98.60
65034;DHT22;51601;51.356;12.458;2022-09-14T16:55:15;15.90;98.60
65034;DHT22;51601;51.356;12.458;2022-09-14T16:59:30;15.90;98.50
65034;DHT22;51601;51.356;12.458;2022-09-14T17:03:46;15.90;98.60
65034;DHT22;51601;51.356;12.458;2022-09-14T17:08:01;15.80;98.70
65034;DHT22;51601;51.356;12.458;2022-09-14T17:12:15;15.80;98.80
65034;DHT22;51601;51.356;12.458;2022-09-14T17:16:30;15.70;98.80
65034;DHT22;51601;51.356;12.458;2022-09-14T17:20:52;15.70;98.80
65034;DHT22;51601;51.356;12.458;2022-09-14T17:25:06;15.70;98.80
65034;DHT22;51601;51.356;12.458;2022-09-14T17:29:23;15.60;99.00
65034;DHT22;51601;51.356;12.458;2022-09-14T17:33:38;15.60;99.10
65034;DHT22;51601;51.356;12.458;2022-09-14T17:37:52;15.50;99.00
65034;DHT22;51601;51.356;12.458;2022-09-14T17:42:06;15.40;99.00
65034;DHT22;51601;51.356;12.458;2022-09-14T17:46:20;15.40;99.40
65034;DHT22;51601;51.356;12.458;2022-09-14T17:50:38;15.30;99.40
65034;DHT22;51601;51.356;12.458;2022-09-14T17:54:51;15.20;99.60
65034;DHT22;51601;51.356;12.458;2022-09-14T17:59:07;15.10;99.70
65034;DHT22;51601;51.356;12.458;2022-09-14T18:03:22;15.10;99.90
65034;DHT22;51601;51.356;12.458;2022-09-14T18:07:38;15.10;99.90
65034;DHT22;51601;51.356;12.458;2022-09-14T18:11:54;15.10;99.90
65034;DHT22;51601;51.356;12.458;2022-09-14T18:16:08;15.00;99.90
65034;DHT22;51601;51.356;12.458;2022-09-14T18:20:22;15.00;99.90
65034;DHT22;51601;51.356;12.458;2022-09-14T18:24:38;15.10;99.90
65034;DHT22;51601;51.356;12.458;2022-09-14T18:28:53;15.00;99.90
65034;DHT22;51601;51.356;12.458;2022-09-14T18:33:07;15.00;99.90
65034;DHT22;51601;51.356;12.458;2022-09-14T18:37:21;15.00;99.90
65034;DHT22;51601;51.356;12.458;2022-09-14T18:41:39;15.00;99.90
65034;DHT22;51601;51.356;12.458;2022-09-14T18:45:53;15.10;99.90
65034;DHT22;51601;51.356;12.458;2022-09-14T18:50:08;15.10;99.90
65034;DHT22;51601;51.356;12.458;2022-09-14T18:54:22;15.20;99.90
65034;DHT22;51601;51.356;12.458;2022-09-14T18:58:42;15.20;99.90
65034;DHT22;51601;51.356;12.458;2022-09-14T19:02:56;15.20;99.90
65034;DHT22;51601;51.356;12.458;2022-09-14T19:07:10;15.20;99.90
65034;DHT22;51601;51.356;12.458;2022-09-14T19:11:26;15.10;99.90
65034;DHT22;51601;51.356;12.458;2022-09-14T19:15:41;15.10;99.90
65034;DHT22;51601;51.356;12.458;2022-09-14T19:19:56;15.10;99.90
65034;DHT22;51601;51.356;12.458;2022-09-14T19:24:11;15.10;99.90
65034;DHT22;51601;51.356;12.458;2022-09-14T19:28:25;15.20;99.90
65034;DHT22;51601;51.356;12.458;2022-09-14T19:32:40;15.20;99.90
65034;DHT22;51601;51.356;12.458;2022-09-14T19:36:54;15.20;99.90
65034;DHT22;51601;51.356;12.458;2022-09-14T19:41:08;15.20;99.90
65034;DHT22;51601;51.356;12.458;2022-09-14T19:45:22;15.20;99.90
65034;DHT22;51601;51.356;12.458;2022-09-14T19:49:37;15.20;99.90
65034;DHT22;51601;51.356;12.458;2022-09-14T19:53:53;15.20;99.90
65034;DHT22;51601;51.356;12.458;2022-09-14T19:58:07;15.20;99.90
65034;DHT22;51601;51.356;12.458;2022-09-14T20:02:20;15.30;99.90
65034;DHT22;51601;51.356;12.458;2022-09-14T20:06:37;15.20;99.90
65034;DHT22;51601;51.356;12.458;2022-09-14T20:10:51;15.20;99.90
65034;DHT22;51601;51.356;12.458;2022-09-14T20:15:06;15.10;99.90
65034;DHT22;51601;51.356;12.458;2022-09-14T20:19:22;15.10;99.90
65034;DHT22;51601;51.356;12.458;2022-09-14T20:23:38;15.20;99.90
65034;DHT22;51601;51.356;12.458;2022-09-14T20:28:12;15.20;99.90
65034;DHT22;51601;51.356;12.458;2022-09-14T20:32:27;15.20;99.90
65034;DHT22;51601;51.356;12.458;2022-09-14T20:36:42;15.20;99.90
65034;DHT22;51601;51.356;12.458;2022-09-14T20:40:59;15.20;99.90
65034;DHT22;51601;51.356;12.458;2022-09-14T20:45:13;15.30;99.90
65034;DHT22;51601;51.356;12.458;2022-09-14T20:49:28;15.30;99.90
65034;DHT22;51601;51.356;12.458;2022-09-14T20:53:42;15.40;99.90
65034;DHT22;51601;51.356;12.458;2022-09-14T20:57:57;15.40;99.90
65034;DHT22;51601;51.356;12.458;2022-09-14T21:02:11;15.40;99.90
65034;DHT22;51601;51.356;12.458;2022-09-14T21:06:25;15.40;99.90
65034;DHT22;51601;51.356;12.458;2022-09-14T21:10:39;15.40;99.90
65034;DHT22;51601;51.356;12.458;2022-09-14T21:14:54;15.30;99.90
65034;DHT22;51601;51.356;12.458;2022-09-14T21:19:11;15.40;99.90
65034;DHT22;51601;51.356;12.458;2022-09-14T21:23:25;15.30;99.90
65034;DHT22;51601;51.356;12.458;2022-09-14T21:27:39;15.30;99.90
65034;DHT22;51601;51.356;12.458;2022-09-14T21:31:55;15.40;99.90
65034;DHT22;51601;51.356;12.458;2022-09-14T21:36:11;15.40;99.90
65034;DHT22;51601;51.356;12.458;2022-09-14T21:40:25;15.40;99.90
65034;DHT22;51601;51.356;12.458;2022-09-14T21:44:39;15.40;99.90
65034;DHT22;51601;51.356;12.458;2022-09-14T21:48:55;15.50;99.90
65034;DHT22;51601;51.356;12.458;2022-09-14T21:53:09;15.50;99.90
65034;DHT22;51601;51.356;12.458;2022-09-14T21:57:22;15.50;99.90
65034;DHT22;51601;51.356;12.458;2022-09-14T22:01:36;15.50;99.90
65034;DHT22;51601;51.356;12.458;2022-09-14T22:05:56;15.40;99.90
65034;DHT22;51601;51.356;12.458;2022-09-14T22:10:10;15.40;99.90
65034;DHT22;51601;51.356;12.458;2022-09-14T22:14:26;15.40;99.90
65034;DHT22;51601;51.356;12.458;2022-09-14T22:18:47;15.40;99.90
65034;DHT22;51601;51.356;12.458;2022-09-14T22:23:06;15.40;99.90
65034;DHT22;51601;51.356;12.458;2022-09-14T22:27:19;15.50;99.90
65034;DHT22;51601;51.356;12.458;2022-09-14T22:31:34;15.40;99.90
65034;DHT22;51601;51.356;12.458;2022-09-14T22:35:52;15.40;99.90
65034;DHT22;51601;51.356;12.458;2022-09-14T22:40:08;15.50;99.90
65034;DHT22;51601;51.356;12.458;2022-09-14T22:44:22;15.50;99.90
65034;DHT22;51601;51.356;12.458;2022-09-14T22:48:37;15.50;99.90
65034;DHT22;51601;51.356;12.458;2022-09-14T22:52:51;15.50;99.90
65034;DHT22;51601;51.356;12.458;2022-09-14T22:57:06;15.50;99.90
65034;DHT22;51601;51.356;12.458;2022-09-14T23:01:21;15.50;99.90
65034;DHT22;51601;51.356;12.458;2022-09-14T23:05:37;15.50;99.90
65034;DHT22;51601;51.356;12.458;2022-09-14T23:09:51;15.40;99.90
65034;DHT22;51601;51.356;12.458;2022-09-14T23:14:06;15.40;99.90
65034;DHT22;51601;51.356;12.458;2022-09-14T23:18:20;15.40;99.90
65034;DHT22;51601;51.356;12.458;2022-09-14T23:22:34;15.30;99.90
65034;DHT22;51601;51.356;12.458;2022-09-14T23:26:48;15.30;99.90
65034;DHT22;51601;51.356;12.458;2022-09-14T23:31:03;15.20;99.90
65034;DHT22;51601;51.356;12.458;2022-09-14T23:35:17;15.20;99.90
65034;DHT22;51601;51.356;12.458;2022-09-14T23:39:31;15.10;99.90
65034;DHT22;51601;51.356;12.458;2022-09-14T23:43:45;15.10;99.90
65034;DHT22;51601;51.356;12.458;2022-09-14T23:48:01;15.00;99.90
65034;DHT22;51601;51.356;12.458;2022-09-14T23:52:15;15.00;99.90
65034;DHT22;51601;51.356;12.458;2022-09-14T23:56:29;14.90;99.90
